createdAt,value
2019-05-14T00:00:03.595Z,1.10
2019-05-14T00:01:03.740Z,1.10
2019-05-14T00:02:03.461Z,1.10
2019-05-14T00:03:03.391Z,1.00
2019-05-14T00:04:03.326Z,1.00
2019-05-14T00:05:03.258Z,1.10
2019-05-14T00:06:03.190Z,0.80
2019-05-14T00:07:03.118Z,0.90
2019-05-14T00:08:03.053Z,1.00
2019-05-14T00:09:02.978Z,1.00
2019-05-14T00:10:02.936Z,1.20
2019-05-14T00:11:02.848Z,1.20
2019-05-14T00:12:02.966Z,0.90
2019-05-14T00:13:02.709Z,1.10
2019-05-14T00:14:02.639Z,1.00
2019-05-14T00:15:02.572Z,1.00
2019-05-14T00:16:02.503Z,1.10
2019-05-14T00:17:02.434Z,0.80
2019-05-14T00:18:02.365Z,0.90
2019-05-14T00:19:02.297Z,1.00
2019-05-14T00:20:09.437Z,1.10
2019-05-14T00:21:02.201Z,1.00
2019-05-14T00:22:02.225Z,0.90
2019-05-14T00:23:02.019Z,1.10
2019-05-14T00:24:01.971Z,1.20
2019-05-14T00:25:01.891Z,1.40
2019-05-14T00:26:02.056Z,1.00
2019-05-14T00:27:02.186Z,1.20
2019-05-14T00:28:01.679Z,0.90
2019-05-14T00:29:01.763Z,1.10
2019-05-14T00:30:02.461Z,1.20
2019-05-14T00:31:02.838Z,1.00
2019-05-14T00:32:01.917Z,1.20
2019-05-14T00:33:01.452Z,1.30
2019-05-14T00:34:01.723Z,1.10
2019-05-14T00:35:02.003Z,1.10
2019-05-14T00:36:02.084Z,1.00
2019-05-14T00:37:01.661Z,0.90
2019-05-14T00:38:01.468Z,1.10
2019-05-14T00:39:01.841Z,1.10
2019-05-14T00:40:01.371Z,1.10
2019-05-14T00:41:01.920Z,1.10
2019-05-14T00:42:01.813Z,1.10
2019-05-14T00:43:02.690Z,1.00
2019-05-14T00:44:01.911Z,1.00
2019-05-14T00:45:01.227Z,1.00
2019-05-14T00:46:01.666Z,1.20
2019-05-14T00:47:02.206Z,1.10
2019-05-14T00:48:01.509Z,1.10
2019-05-14T00:49:01.824Z,1.00
2019-05-14T00:50:02.208Z,1.10
2019-05-14T00:51:02.148Z,1.00
2019-05-14T00:52:02.062Z,1.20
2019-05-14T00:53:01.937Z,1.10
2019-05-14T00:54:01.679Z,1.10
2019-05-14T00:55:01.133Z,1.30
2019-05-14T00:56:01.905Z,1.20
2019-05-14T00:57:01.415Z,1.00
2019-05-14T00:58:02.139Z,1.00
2019-05-14T00:59:01.416Z,1.00
2019-05-14T01:00:01.068Z,1.50
2019-05-14T01:01:01.519Z,1.20
2019-05-14T01:02:02.663Z,1.10
2019-05-14T01:02:59.273Z,1.10
2019-05-14T01:04:01.210Z,1.20
2019-05-14T01:04:59.134Z,1.00
2019-05-14T01:05:59.073Z,1.00
2019-05-14T01:07:01.410Z,0.90
2019-05-14T01:07:58.931Z,1.30
2019-05-14T01:09:01.051Z,1.20
2019-05-14T01:09:58.794Z,1.00
2019-05-14T01:10:58.728Z,1.10
2019-05-14T01:11:58.655Z,1.30
2019-05-14T01:13:00.974Z,1.30
2019-05-14T01:13:58.513Z,1.20
2019-05-14T01:15:07.746Z,1.10
2019-05-14T01:15:58.377Z,1.20
2019-05-14T01:16:58.322Z,1.00
2019-05-14T01:17:58.242Z,1.10
2019-05-14T01:18:58.169Z,1.00
2019-05-14T01:19:58.107Z,1.00
2019-05-14T01:20:58.042Z,0.80
2019-05-14T01:21:57.968Z,1.20
2019-05-14T01:22:57.902Z,1.10
2019-05-14T01:23:57.828Z,1.00
2019-05-14T01:24:57.761Z,1.00
2019-05-14T01:25:57.692Z,1.10
2019-05-14T01:26:57.620Z,1.00
2019-05-14T01:27:57.551Z,0.80
2019-05-14T01:28:57.789Z,1.00
2019-05-14T01:29:57.416Z,1.10
2019-05-14T01:30:57.348Z,1.00
2019-05-14T01:31:57.279Z,1.30
2019-05-14T01:32:57.205Z,1.10
2019-05-14T01:33:57.152Z,1.10
2019-05-14T01:34:57.074Z,1.10
2019-05-14T01:35:57.001Z,0.90
2019-05-14T01:36:56.936Z,1.00
2019-05-14T01:37:56.870Z,1.00
2019-05-14T01:38:56.798Z,0.90
2019-05-14T01:39:56.725Z,1.00
2019-05-14T01:40:56.660Z,0.80
2019-05-14T01:41:56.590Z,1.10
2019-05-14T01:42:56.519Z,0.80
2019-05-14T01:43:56.561Z,1.10
2019-05-14T01:44:56.398Z,0.90
2019-05-14T01:45:56.312Z,1.00
2019-05-14T01:46:56.242Z,1.20
2019-05-14T01:47:56.175Z,1.00
2019-05-14T01:48:56.105Z,0.90
2019-05-14T01:49:56.037Z,1.10
2019-05-14T01:50:55.983Z,0.80
2019-05-14T01:51:55.896Z,0.80
2019-05-14T01:52:55.829Z,1.00
2019-05-14T01:53:55.760Z,1.10
2019-05-14T01:54:55.691Z,0.70
2019-05-14T01:55:55.621Z,0.90
2019-05-14T01:56:55.552Z,1.10
2019-05-14T01:57:55.483Z,0.90
2019-05-14T01:58:55.416Z,0.90
2019-05-14T01:59:55.346Z,1.10
2019-05-14T02:00:55.275Z,0.90
2019-05-14T02:01:55.212Z,1.10
2019-05-14T02:02:55.142Z,0.90
2019-05-14T02:03:55.070Z,1.10
2019-05-14T02:04:55.000Z,1.00
2019-05-14T02:05:54.932Z,1.00
2019-05-14T02:06:54.864Z,1.00
2019-05-14T02:07:54.791Z,1.00
2019-05-14T02:08:54.724Z,0.90
2019-05-14T02:09:54.686Z,1.00
2019-05-14T02:10:54.591Z,1.20
2019-05-14T02:11:54.516Z,0.80
2019-05-14T02:12:54.447Z,1.10
2019-05-14T02:13:54.379Z,1.30
2019-05-14T02:14:54.311Z,1.00
2019-05-14T02:15:54.240Z,0.90
2019-05-14T02:16:54.170Z,1.20
2019-05-14T02:17:54.100Z,1.10
2019-05-14T02:18:54.030Z,1.10
2019-05-14T02:19:53.965Z,1.00
2019-05-14T02:20:53.894Z,1.00
2019-05-14T02:21:53.823Z,1.20
2019-05-14T02:22:53.756Z,1.10
2019-05-14T02:23:53.690Z,0.90
2019-05-14T02:24:53.618Z,1.10
2019-05-14T02:25:53.561Z,1.10
2019-05-14T02:26:53.477Z,1.10
2019-05-14T02:27:53.409Z,0.90
2019-05-14T02:28:53.338Z,0.90
2019-05-14T02:29:53.294Z,1.20
2019-05-14T02:30:57.922Z,1.10
2019-05-14T02:31:53.136Z,1.10
2019-05-14T02:32:53.063Z,1.20
2019-05-14T02:33:52.988Z,1.00
2019-05-14T02:34:52.930Z,1.00
2019-05-14T02:35:52.855Z,1.20
2019-05-14T02:36:52.788Z,1.40
2019-05-14T02:37:52.718Z,1.30
2019-05-14T02:38:52.648Z,1.00
2019-05-14T02:39:52.577Z,1.30
2019-05-14T02:40:52.515Z,1.20
2019-05-14T02:41:52.438Z,1.30
2019-05-14T02:42:52.400Z,1.20
2019-05-14T02:43:52.298Z,1.40
2019-05-14T02:44:52.230Z,1.50
2019-05-14T02:46:09.582Z,1.40
2019-05-14T02:46:52.093Z,1.50
2019-05-14T02:47:52.034Z,1.40
2019-05-14T02:48:51.950Z,1.20
2019-05-14T02:49:51.884Z,1.30
2019-05-14T02:50:51.814Z,1.10
2019-05-14T02:51:51.745Z,1.20
2019-05-14T02:52:51.677Z,1.00
2019-05-14T02:53:51.634Z,1.40
2019-05-14T02:54:51.555Z,1.40
2019-05-14T02:55:51.585Z,1.10
2019-05-14T02:56:51.403Z,1.20
2019-05-14T02:57:51.326Z,1.50
2019-05-14T02:58:51.269Z,1.20
2019-05-14T02:59:51.191Z,1.20
2019-05-14T03:00:51.124Z,1.40
2019-05-14T03:01:51.051Z,1.30
2019-05-14T03:02:50.996Z,1.30
2019-05-14T03:03:50.912Z,1.30
2019-05-14T03:04:50.845Z,1.00
2019-05-14T03:05:50.773Z,1.20
2019-05-14T03:06:50.704Z,1.20
2019-05-14T03:07:50.635Z,1.10
2019-05-14T03:08:50.571Z,1.40
2019-05-14T03:09:50.593Z,1.20
2019-05-14T03:10:50.836Z,1.10
2019-05-14T03:11:50.364Z,1.20
2019-05-14T03:12:50.589Z,1.10
2019-05-14T03:13:50.219Z,1.30
2019-05-14T03:14:50.318Z,1.20
2019-05-14T03:15:50.297Z,1.20
2019-05-14T03:16:50.019Z,1.00
2019-05-14T03:17:49.951Z,1.30
2019-05-14T03:18:50.344Z,1.30
2019-05-14T03:19:49.905Z,0.90
2019-05-14T03:20:50.368Z,1.10
2019-05-14T03:21:50.395Z,1.20
2019-05-14T03:23:01.708Z,1.20
2019-05-14T03:23:49.868Z,1.40
2019-05-14T03:24:50.332Z,1.20
2019-05-14T03:25:49.635Z,1.20
2019-05-14T03:26:50.202Z,1.00
2019-05-14T03:27:49.849Z,1.40
2019-05-14T03:28:49.878Z,1.10
2019-05-14T03:29:49.912Z,0.90
2019-05-14T03:30:52.012Z,1.20
2019-05-14T03:31:52.735Z,1.30
2019-05-14T03:32:52.645Z,1.30
2019-05-14T03:33:52.432Z,1.10
2019-05-14T03:34:52.815Z,1.20
2019-05-14T03:35:57.399Z,1.10
2019-05-14T03:36:52.827Z,1.20
2019-05-14T03:37:49.611Z,1.40
2019-05-14T03:38:50.198Z,1.20
2019-05-14T03:39:49.363Z,1.20
2019-05-14T03:40:49.383Z,1.30
2019-05-14T03:41:49.980Z,1.30
2019-05-14T03:42:49.092Z,1.10
2019-05-14T03:43:49.387Z,1.40
2019-05-14T03:44:49.033Z,1.30
2019-05-14T03:45:49.517Z,1.30
2019-05-14T03:46:54.650Z,1.40
2019-05-14T03:47:50.368Z,1.40
2019-05-14T03:48:49.283Z,1.70
2019-05-14T03:49:49.822Z,1.30
2019-05-14T03:50:49.488Z,1.40
2019-05-14T03:51:49.772Z,1.60
2019-05-14T03:52:49.857Z,1.40
2019-05-14T03:54:00.667Z,1.90
2019-05-14T03:54:49.658Z,1.50
2019-05-14T03:55:50.004Z,1.70
2019-05-14T03:56:49.709Z,1.40
2019-05-14T03:57:49.758Z,1.50
2019-05-14T03:58:49.408Z,1.40
2019-05-14T03:59:49.581Z,1.60
2019-05-14T04:00:50.141Z,1.60
2019-05-14T04:01:50.692Z,1.60
2019-05-14T04:02:49.096Z,2.00
2019-05-14T04:03:50.036Z,1.60
2019-05-14T04:04:49.829Z,1.30
2019-05-14T04:05:49.444Z,1.50
2019-05-14T04:06:49.366Z,1.30
2019-05-14T04:07:49.917Z,1.60
2019-05-14T04:08:49.524Z,1.50
2019-05-14T04:09:49.365Z,1.40
2019-05-14T04:10:50.596Z,1.40
2019-05-14T04:11:46.162Z,1.40
2019-05-14T04:12:48.863Z,1.40
2019-05-14T04:13:49.421Z,1.30
2019-05-14T04:14:45.955Z,1.50
2019-05-14T04:15:45.890Z,1.40
2019-05-14T04:17:01.603Z,1.50
2019-05-14T04:17:45.740Z,1.40
2019-05-14T04:18:45.670Z,1.60
2019-05-14T04:19:45.598Z,1.60
2019-05-14T04:20:45.531Z,1.50
2019-05-14T04:21:45.464Z,1.60
2019-05-14T04:22:45.390Z,1.60
2019-05-14T04:23:45.326Z,1.60
2019-05-14T04:24:45.248Z,1.60
2019-05-14T04:25:45.172Z,1.70
2019-05-14T04:26:58.289Z,1.30
2019-05-14T04:27:45.040Z,1.30
2019-05-14T04:28:44.990Z,1.70
2019-05-14T04:29:44.901Z,1.80
2019-05-14T04:30:44.825Z,1.90
2019-05-14T04:31:44.756Z,1.70
2019-05-14T04:32:44.702Z,1.70
2019-05-14T04:33:44.617Z,1.60
2019-05-14T04:34:44.548Z,1.50
2019-05-14T04:35:44.478Z,1.70
2019-05-14T04:36:44.402Z,1.50
2019-05-14T04:37:44.335Z,1.50
2019-05-14T04:38:44.265Z,1.50
2019-05-14T04:39:44.194Z,1.80
2019-05-14T04:40:44.124Z,1.70
2019-05-14T04:41:44.053Z,1.60
2019-05-14T04:42:43.985Z,1.60
2019-05-14T04:43:43.914Z,1.50
2019-05-14T04:44:43.847Z,1.70
2019-05-14T04:45:43.774Z,1.80
2019-05-14T04:46:43.703Z,1.60
2019-05-14T04:47:43.634Z,1.70
2019-05-14T04:48:44.261Z,2.20
2019-05-14T04:49:43.493Z,2.00
2019-05-14T04:50:43.428Z,1.80
2019-05-14T04:51:43.349Z,1.80
2019-05-14T04:52:43.284Z,2.00
2019-05-14T04:53:43.206Z,1.60
2019-05-14T04:54:43.153Z,1.80
2019-05-14T04:55:43.071Z,1.60
2019-05-14T04:56:43.001Z,1.60
2019-05-14T04:57:42.933Z,1.70
2019-05-14T04:58:42.869Z,1.70
2019-05-14T04:59:42.791Z,1.70
2019-05-14T05:00:42.740Z,1.70
2019-05-14T05:01:42.649Z,1.80
2019-05-14T05:02:42.584Z,2.00
2019-05-14T05:03:42.506Z,1.90
2019-05-14T05:04:42.439Z,2.00
2019-05-14T05:05:42.370Z,1.60
2019-05-14T05:06:42.296Z,1.70
2019-05-14T05:07:42.230Z,1.90
2019-05-14T05:08:42.156Z,1.80
2019-05-14T05:09:42.092Z,1.80
2019-05-14T05:10:42.015Z,2.20
2019-05-14T05:11:41.944Z,1.80
2019-05-14T05:12:41.882Z,1.80
2019-05-14T05:13:41.802Z,1.70
2019-05-14T05:14:41.736Z,1.60
2019-05-14T05:15:41.665Z,1.80
2019-05-14T05:16:41.593Z,1.50
2019-05-14T05:17:48.200Z,1.80
2019-05-14T05:18:41.455Z,1.60
2019-05-14T05:19:45.434Z,1.70
2019-05-14T05:20:41.312Z,1.70
2019-05-14T05:21:41.245Z,1.60
2019-05-14T05:22:41.172Z,2.00
2019-05-14T05:23:41.103Z,1.80
2019-05-14T05:24:41.283Z,1.40
2019-05-14T05:25:40.957Z,2.00
2019-05-14T05:26:40.891Z,1.50
2019-05-14T05:27:40.829Z,1.70
2019-05-14T05:28:40.751Z,1.70
2019-05-14T05:29:40.682Z,1.60
2019-05-14T05:30:40.612Z,1.80
2019-05-14T05:31:40.541Z,1.80
2019-05-14T05:32:40.467Z,1.80
2019-05-14T05:33:40.399Z,1.60
2019-05-14T05:34:40.534Z,2.10
2019-05-14T05:35:42.313Z,2.00
2019-05-14T05:36:40.197Z,2.00
2019-05-14T05:37:40.122Z,1.90
2019-05-14T05:38:40.055Z,1.90
2019-05-14T05:39:39.982Z,1.90
2019-05-14T05:40:39.920Z,1.80
2019-05-14T05:41:39.842Z,1.80
2019-05-14T05:42:39.778Z,1.60
2019-05-14T05:43:40.631Z,2.00
2019-05-14T05:44:40.251Z,2.00
2019-05-14T05:45:39.564Z,2.20
2019-05-14T05:46:41.438Z,1.90
2019-05-14T05:47:54.107Z,1.90
2019-05-14T05:48:39.499Z,2.10
2019-05-14T05:49:39.779Z,1.90
2019-05-14T05:50:40.525Z,2.00
2019-05-14T05:51:39.564Z,1.70
2019-05-14T05:52:39.078Z,1.80
2019-05-14T05:53:39.544Z,1.80
2019-05-14T05:54:38.933Z,2.00
2019-05-14T05:55:39.415Z,1.90
2019-05-14T05:56:38.963Z,1.60
2019-05-14T05:57:39.444Z,1.80
2019-05-14T05:58:39.780Z,1.80
2019-05-14T05:59:39.346Z,1.60
2019-05-14T06:00:40.039Z,1.70
2019-05-14T06:01:45.815Z,1.60
2019-05-14T06:02:40.016Z,1.80
2019-05-14T06:03:39.313Z,1.50
2019-05-14T06:04:39.367Z,1.70
2019-05-14T06:05:38.868Z,2.00
2019-05-14T06:06:39.024Z,1.60
2019-05-14T06:07:39.416Z,1.60
2019-05-14T06:08:38.804Z,1.80
2019-05-14T06:09:38.254Z,1.50
2019-05-14T06:10:40.004Z,1.60
2019-05-14T06:11:38.276Z,1.80
2019-05-14T06:12:38.790Z,1.40
2019-05-14T06:13:39.016Z,1.70
2019-05-14T06:14:38.214Z,1.70
2019-05-14T06:15:45.656Z,2.00
2019-05-14T06:16:38.528Z,2.10
2019-05-14T06:17:39.102Z,1.60
2019-05-14T06:18:39.094Z,1.90
2019-05-14T06:19:38.235Z,1.90
2019-05-14T06:20:38.672Z,2.00
2019-05-14T06:21:39.558Z,2.30
2019-05-14T06:22:38.481Z,2.10
2019-05-14T06:23:38.565Z,1.70
2019-05-14T06:24:39.018Z,2.00
2019-05-14T06:25:39.774Z,2.30
2019-05-14T06:26:38.387Z,2.20
2019-05-14T06:27:38.005Z,2.10
2019-05-14T06:28:40.354Z,2.90
2019-05-14T06:29:38.241Z,2.40
2019-05-14T06:30:39.318Z,2.30
2019-05-14T06:31:38.712Z,2.50
2019-05-14T06:32:38.594Z,2.20
2019-05-14T06:33:39.124Z,2.30
2019-05-14T06:34:38.263Z,2.30
2019-05-14T06:35:39.333Z,2.40
2019-05-14T06:36:36.037Z,2.50
2019-05-14T06:37:38.294Z,2.40
2019-05-14T06:38:38.588Z,2.50
2019-05-14T06:39:35.834Z,2.40
2019-05-14T06:40:35.768Z,2.70
2019-05-14T06:41:40.136Z,2.50
2019-05-14T06:42:35.620Z,3.10
2019-05-14T06:43:35.568Z,3.10
2019-05-14T06:44:35.484Z,2.40
2019-05-14T06:45:35.418Z,2.60
2019-05-14T06:46:35.346Z,2.80
2019-05-14T06:47:35.290Z,2.40
2019-05-14T06:48:35.228Z,2.40
2019-05-14T06:49:35.142Z,2.30
2019-05-14T06:50:35.079Z,2.40
2019-05-14T06:51:35.008Z,2.60
2019-05-14T06:52:34.948Z,2.10
2019-05-14T06:53:34.872Z,2.70
2019-05-14T06:54:34.809Z,2.30
2019-05-14T06:55:34.732Z,2.20
2019-05-14T06:56:34.664Z,2.20
2019-05-14T06:57:34.596Z,2.60
2019-05-14T06:58:34.531Z,2.40
2019-05-14T06:59:34.464Z,2.40
2019-05-14T07:00:34.396Z,2.10
2019-05-14T07:01:34.330Z,2.30
2019-05-14T07:02:34.259Z,2.70
2019-05-14T07:03:34.192Z,2.50
2019-05-14T07:04:34.130Z,2.30
2019-05-14T07:05:34.058Z,2.20
2019-05-14T07:06:33.994Z,2.60
2019-05-14T07:07:33.924Z,2.40
2019-05-14T07:08:33.855Z,2.50
2019-05-14T07:09:33.788Z,2.30
2019-05-14T07:10:33.722Z,2.40
2019-05-14T07:11:33.651Z,2.30
2019-05-14T07:12:33.584Z,2.40
2019-05-14T07:13:33.521Z,2.70
2019-05-14T07:14:33.453Z,2.30
2019-05-14T07:15:33.380Z,2.30
2019-05-14T07:16:33.321Z,2.60
2019-05-14T07:17:33.246Z,2.30
2019-05-14T07:18:45.630Z,2.50
2019-05-14T07:19:33.123Z,2.40
2019-05-14T07:20:33.050Z,2.70
2019-05-14T07:21:32.979Z,2.50
2019-05-14T07:22:32.911Z,3.00
2019-05-14T07:23:32.851Z,2.60
2019-05-14T07:24:32.778Z,2.30
2019-05-14T07:25:32.726Z,2.60
2019-05-14T07:26:32.641Z,2.10
2019-05-14T07:27:32.575Z,2.30
2019-05-14T07:28:32.509Z,2.60
2019-05-14T07:29:32.442Z,3.00
2019-05-14T07:30:32.379Z,2.50
2019-05-14T07:31:32.316Z,2.30
2019-05-14T07:32:32.239Z,2.60
2019-05-14T07:33:32.168Z,2.50
2019-05-14T07:34:32.219Z,2.60
2019-05-14T07:35:32.035Z,2.50
2019-05-14T07:36:31.968Z,2.60
2019-05-14T07:37:31.898Z,2.50
2019-05-14T07:38:31.837Z,2.50
2019-05-14T07:39:31.768Z,2.60
2019-05-14T07:40:31.698Z,2.00
2019-05-14T07:41:31.636Z,2.70
2019-05-14T07:42:31.568Z,2.70
2019-05-14T07:43:31.498Z,2.60
2019-05-14T07:44:31.430Z,3.00
2019-05-14T07:45:33.313Z,2.80
2019-05-14T07:46:31.295Z,2.70
2019-05-14T07:47:31.230Z,3.10
2019-05-14T07:48:31.163Z,2.60
2019-05-14T07:49:31.089Z,2.40
2019-05-14T07:50:31.028Z,2.70
2019-05-14T07:51:30.977Z,2.40
2019-05-14T07:52:30.894Z,2.60
2019-05-14T07:53:38.803Z,2.50
2019-05-14T07:54:30.758Z,2.50
2019-05-14T07:55:30.709Z,2.40
2019-05-14T07:56:30.629Z,2.20
2019-05-14T07:57:30.564Z,2.30
2019-05-14T07:58:30.496Z,2.20
2019-05-14T07:59:30.425Z,2.10
2019-05-14T08:00:30.360Z,2.30
2019-05-14T08:01:30.298Z,2.60
2019-05-14T08:02:30.231Z,3.10
2019-05-14T08:03:30.171Z,2.50
2019-05-14T08:04:30.094Z,2.50
2019-05-14T08:05:30.028Z,2.50
2019-05-14T08:06:29.965Z,2.70
2019-05-14T08:07:29.892Z,2.20
2019-05-14T08:08:29.831Z,2.40
2019-05-14T08:09:29.761Z,2.60
2019-05-14T08:10:29.692Z,2.30
2019-05-14T08:11:29.626Z,2.40
2019-05-14T08:12:29.558Z,2.60
2019-05-14T08:13:29.494Z,2.30
2019-05-14T08:14:39.922Z,2.40
2019-05-14T08:15:29.361Z,2.10
2019-05-14T08:16:29.330Z,2.10
2019-05-14T08:17:29.255Z,2.00
2019-05-14T08:18:29.359Z,2.20
2019-05-14T08:19:31.505Z,2.40
2019-05-14T08:20:29.030Z,2.60
2019-05-14T08:21:29.433Z,3.70
2019-05-14T08:22:29.239Z,4.00
2019-05-14T08:23:28.831Z,10.40
2019-05-14T08:24:30.079Z,8.40
2019-05-14T08:25:28.698Z,8.80
2019-05-14T08:26:29.329Z,6.30
2019-05-14T08:27:31.092Z,4.70
2019-05-14T08:28:29.076Z,3.20
2019-05-14T08:29:28.747Z,3.80
2019-05-14T08:30:28.442Z,4.30
2019-05-14T08:31:29.319Z,3.90
2019-05-14T08:32:28.527Z,3.60
2019-05-14T08:33:29.051Z,2.70
2019-05-14T08:34:31.801Z,2.90
2019-05-14T08:35:29.073Z,3.50
2019-05-14T08:36:28.635Z,2.60
2019-05-14T08:37:28.059Z,2.60
2019-05-14T08:38:28.427Z,2.20
2019-05-14T08:39:28.588Z,2.30
2019-05-14T08:40:28.764Z,2.10
2019-05-14T08:41:28.869Z,2.40
2019-05-14T08:42:29.077Z,2.30
2019-05-14T08:43:29.249Z,2.00
2019-05-14T08:44:29.395Z,1.90
2019-05-14T08:45:28.383Z,1.90
2019-05-14T08:46:28.301Z,2.00
2019-05-14T08:47:29.164Z,1.80
2019-05-14T08:48:29.658Z,1.70
2019-05-14T08:49:38.923Z,1.90
2019-05-14T08:50:28.098Z,2.10
2019-05-14T08:51:29.544Z,2.10
2019-05-14T08:52:28.777Z,2.20
2019-05-14T08:53:28.787Z,1.80
2019-05-14T08:54:28.402Z,1.80
2019-05-14T08:55:26.714Z,2.20
2019-05-14T08:56:28.151Z,1.80
2019-05-14T08:57:28.847Z,1.70
2019-05-14T08:58:26.668Z,1.70
2019-05-14T08:59:28.687Z,1.80
2019-05-14T09:00:28.566Z,2.00
2019-05-14T09:01:29.073Z,2.00
2019-05-14T09:02:28.502Z,2.10
2019-05-14T09:03:28.569Z,1.70
2019-05-14T09:04:29.784Z,1.90
2019-05-14T09:05:26.053Z,1.90
2019-05-14T09:06:25.991Z,2.00
2019-05-14T09:07:25.924Z,2.00
2019-05-14T09:08:28.286Z,2.00
2019-05-14T09:09:25.791Z,1.90
2019-05-14T09:10:28.393Z,1.80
2019-05-14T09:11:26.393Z,1.70
2019-05-14T09:12:27.936Z,1.90
2019-05-14T09:13:25.528Z,1.90
2019-05-14T09:14:25.463Z,2.20
2019-05-14T09:15:25.395Z,1.80
2019-05-14T09:16:41.955Z,2.00
2019-05-14T09:17:25.266Z,1.90
2019-05-14T09:18:25.202Z,2.40
2019-05-14T09:19:25.162Z,2.30
2019-05-14T09:20:25.078Z,2.40
2019-05-14T09:21:25.006Z,2.50
2019-05-14T09:22:24.942Z,2.20
2019-05-14T09:23:24.876Z,2.30
2019-05-14T09:24:24.812Z,2.50
2019-05-14T09:25:24.743Z,2.00
2019-05-14T09:26:24.674Z,2.00
2019-05-14T09:27:24.617Z,2.20
2019-05-14T09:28:24.545Z,2.20
2019-05-14T09:30:08.992Z,1.80
2019-05-14T09:30:24.455Z,1.90
2019-05-14T09:31:24.358Z,1.90
2019-05-14T09:32:24.294Z,2.40
2019-05-14T09:33:24.476Z,5.80
2019-05-14T09:34:24.154Z,6.00
2019-05-14T09:35:24.086Z,6.70
2019-05-14T09:36:24.472Z,6.60
2019-05-14T09:37:23.952Z,7.10
2019-05-14T09:38:23.892Z,4.40
2019-05-14T09:39:23.827Z,5.40
2019-05-14T09:40:23.763Z,5.20
2019-05-14T09:41:23.751Z,4.30
2019-05-14T09:42:23.631Z,3.30
2019-05-14T09:43:23.563Z,3.10
2019-05-14T09:44:23.504Z,2.50
2019-05-14T09:45:23.438Z,2.30
2019-05-14T09:46:23.368Z,2.30
2019-05-14T09:47:23.303Z,2.10
2019-05-14T09:48:23.237Z,2.20
2019-05-14T09:49:23.170Z,2.10
2019-05-14T09:50:23.711Z,2.20
2019-05-14T09:51:23.041Z,2.00
2019-05-14T09:52:22.978Z,1.80
2019-05-14T09:53:22.911Z,2.00
2019-05-14T09:54:22.854Z,2.40
2019-05-14T09:55:22.786Z,2.00
2019-05-14T09:56:22.716Z,1.90
2019-05-14T09:57:22.652Z,1.90
2019-05-14T09:58:22.580Z,2.10
2019-05-14T09:59:22.519Z,2.20
2019-05-14T10:00:22.455Z,2.10
2019-05-14T10:01:22.391Z,2.50
2019-05-14T10:02:22.325Z,2.70
2019-05-14T10:03:22.256Z,2.50
2019-05-14T10:04:22.192Z,2.30
2019-05-14T10:05:22.135Z,2.20
2019-05-14T10:06:22.064Z,2.10
2019-05-14T10:07:21.993Z,1.90
2019-05-14T10:08:21.930Z,2.70
2019-05-14T10:09:21.870Z,2.50
2019-05-14T10:10:21.800Z,2.70
2019-05-14T10:11:21.764Z,2.50
2019-05-14T10:12:21.681Z,2.30
2019-05-14T10:13:21.604Z,3.30
2019-05-14T10:14:21.536Z,2.30
2019-05-14T10:15:21.477Z,2.60
2019-05-14T10:16:21.413Z,2.20
2019-05-14T10:17:21.342Z,2.30
2019-05-14T10:18:21.294Z,2.30
2019-05-14T10:19:21.212Z,2.20
2019-05-14T10:20:36.710Z,2.10
2019-05-14T10:21:21.084Z,2.10
2019-05-14T10:22:21.017Z,2.20
2019-05-14T10:23:20.956Z,2.00
2019-05-14T10:24:20.888Z,2.40
2019-05-14T10:25:20.824Z,2.70
2019-05-14T10:26:20.757Z,2.20
2019-05-14T10:27:20.690Z,2.20
2019-05-14T10:28:20.629Z,2.10
2019-05-14T10:29:20.567Z,1.70
2019-05-14T10:30:20.501Z,1.90
2019-05-14T10:31:20.427Z,2.10
2019-05-14T10:32:20.424Z,2.00
2019-05-14T10:33:20.296Z,2.00
2019-05-14T10:34:20.238Z,2.20
2019-05-14T10:35:20.176Z,1.80
2019-05-14T10:36:20.107Z,1.90
2019-05-14T10:37:20.046Z,2.00
2019-05-14T10:38:19.976Z,2.00
2019-05-14T10:39:19.911Z,2.00
2019-05-14T10:40:19.846Z,2.30
2019-05-14T10:41:19.781Z,2.20
2019-05-14T10:42:20.289Z,2.10
2019-05-14T10:43:19.663Z,2.00
2019-05-14T10:44:19.587Z,2.10
2019-05-14T10:45:19.522Z,2.00
2019-05-14T10:46:19.557Z,2.30
2019-05-14T10:47:19.393Z,2.00
2019-05-14T10:48:19.339Z,2.00
2019-05-14T10:49:23.516Z,2.20
2019-05-14T10:50:19.195Z,1.60
2019-05-14T10:51:19.132Z,2.00
2019-05-14T10:52:19.862Z,1.80
2019-05-14T10:53:20.338Z,2.00
2019-05-14T10:54:25.165Z,2.00
2019-05-14T10:55:18.872Z,1.70
2019-05-14T10:56:19.572Z,1.60
2019-05-14T10:57:18.750Z,1.90
2019-05-14T10:58:19.543Z,1.80
2019-05-14T10:59:18.614Z,1.90
2019-05-14T11:00:18.713Z,1.90
2019-05-14T11:01:22.360Z,1.60
2019-05-14T11:02:18.646Z,1.80
2019-05-14T11:03:18.684Z,1.60
2019-05-14T11:04:19.027Z,1.70
2019-05-14T11:05:18.816Z,1.80
2019-05-14T11:06:18.765Z,1.50
2019-05-14T11:07:18.587Z,1.70
2019-05-14T11:08:18.928Z,1.80
2019-05-14T11:09:18.198Z,1.60
2019-05-14T11:10:19.446Z,1.70
2019-05-14T11:11:18.523Z,1.60
2019-05-14T11:12:19.338Z,1.70
2019-05-14T11:13:19.006Z,1.70
2019-05-14T11:14:19.257Z,1.80
2019-05-14T11:15:19.169Z,1.60
2019-05-14T11:16:19.012Z,1.80
2019-05-14T11:17:19.676Z,1.40
2019-05-14T11:18:19.619Z,1.50
2019-05-14T11:19:18.812Z,1.70
2019-05-14T11:20:19.172Z,1.80
2019-05-14T11:21:25.741Z,1.70
2019-05-14T11:22:18.437Z,1.70
2019-05-14T11:23:18.483Z,1.50
2019-05-14T11:24:18.915Z,1.90
2019-05-14T11:25:19.430Z,1.80
2019-05-14T11:26:18.434Z,1.80
2019-05-14T11:27:18.667Z,1.80
2019-05-14T11:28:19.057Z,1.80
2019-05-14T11:29:18.578Z,1.80
2019-05-14T11:30:19.036Z,1.80
2019-05-14T11:31:19.019Z,1.80
2019-05-14T11:32:18.465Z,1.60
2019-05-14T11:33:18.727Z,1.50
2019-05-14T11:34:19.044Z,1.70
2019-05-14T11:35:18.971Z,1.60
2019-05-14T11:36:18.554Z,1.70
2019-05-14T11:37:18.546Z,2.00
2019-05-14T11:38:28.511Z,1.60
2019-05-14T11:39:17.956Z,1.90
2019-05-14T11:40:18.711Z,1.80
2019-05-14T11:41:18.433Z,1.80
2019-05-14T11:42:15.827Z,1.70
2019-05-14T11:43:15.756Z,2.10
2019-05-14T11:44:15.693Z,1.90
2019-05-14T11:45:15.627Z,2.20
2019-05-14T11:46:15.575Z,1.90
2019-05-14T11:47:15.497Z,2.10
2019-05-14T11:48:15.431Z,2.40
2019-05-14T11:49:15.369Z,1.60
2019-05-14T11:50:15.304Z,1.60
2019-05-14T11:51:15.235Z,1.70
2019-05-14T11:52:15.174Z,1.60
2019-05-14T11:53:15.106Z,1.80
2019-05-14T11:54:15.043Z,1.90
2019-05-14T11:55:14.981Z,1.60
2019-05-14T11:56:14.908Z,2.00
2019-05-14T11:57:14.869Z,1.50
2019-05-14T11:58:14.783Z,1.70
2019-05-14T11:59:14.717Z,2.10
2019-05-14T12:00:14.651Z,2.90
2019-05-14T12:01:14.591Z,3.20
2019-05-14T12:02:14.525Z,2.70
2019-05-14T12:03:14.461Z,2.30
2019-05-14T12:04:14.397Z,2.40
2019-05-14T12:05:14.332Z,2.40
2019-05-14T12:06:14.265Z,1.90
2019-05-14T12:07:14.200Z,2.50
2019-05-14T12:08:14.139Z,2.50
2019-05-14T12:09:14.088Z,2.00
2019-05-14T12:10:14.009Z,2.20
2019-05-14T12:11:13.951Z,2.60
2019-05-14T12:12:13.881Z,2.40
2019-05-14T12:13:13.820Z,2.40
2019-05-14T12:14:13.749Z,1.60
2019-05-14T12:15:13.683Z,2.00
2019-05-14T12:16:13.619Z,2.30
2019-05-14T12:17:13.555Z,1.80
2019-05-14T12:18:13.520Z,1.50
2019-05-14T12:19:13.441Z,2.00
2019-05-14T12:20:13.360Z,3.10
2019-05-14T12:21:13.291Z,1.80
2019-05-14T12:22:13.272Z,1.40
2019-05-14T12:23:13.165Z,1.70
2019-05-14T12:24:13.954Z,1.70
2019-05-14T12:25:13.038Z,1.90
2019-05-14T12:26:12.968Z,1.40
2019-05-14T12:27:12.907Z,1.40
2019-05-14T12:28:13.749Z,1.80
2019-05-14T12:29:12.773Z,1.70
2019-05-14T12:30:12.715Z,1.60
2019-05-14T12:31:12.643Z,1.70
2019-05-14T12:32:13.249Z,1.50
2019-05-14T12:33:12.513Z,2.10
2019-05-14T12:34:12.456Z,1.60
2019-05-14T12:35:12.385Z,1.60
2019-05-14T12:36:12.321Z,1.40
2019-05-14T12:37:12.264Z,1.60
2019-05-14T12:38:12.193Z,1.70
2019-05-14T12:39:12.143Z,1.40
2019-05-14T12:40:12.060Z,1.50
2019-05-14T12:41:12.011Z,1.70
2019-05-14T12:42:11.943Z,1.20
2019-05-14T12:43:11.868Z,1.30
2019-05-14T12:44:11.802Z,1.50
2019-05-14T12:45:11.742Z,2.50
2019-05-14T12:46:11.669Z,1.90
2019-05-14T12:47:11.616Z,2.20
2019-05-14T12:48:11.545Z,1.40
2019-05-14T12:49:11.852Z,1.80
2019-05-14T12:50:11.415Z,1.60
2019-05-14T12:51:11.350Z,1.90
2019-05-14T12:52:24.579Z,3.10
2019-05-14T12:53:11.219Z,2.40
2019-05-14T12:54:11.152Z,1.80
2019-05-14T12:55:11.089Z,2.30
2019-05-14T12:56:11.023Z,2.30
2019-05-14T12:57:10.959Z,1.50
2019-05-14T12:58:10.891Z,1.40
2019-05-14T12:59:10.827Z,1.60
2019-05-14T13:00:10.765Z,1.30
2019-05-14T13:01:10.697Z,1.60
2019-05-14T13:02:10.653Z,1.90
2019-05-14T13:03:10.580Z,2.50
2019-05-14T13:04:10.505Z,1.50
2019-05-14T13:05:10.437Z,1.90
2019-05-14T13:06:10.479Z,2.60
2019-05-14T13:07:10.312Z,1.60
2019-05-14T13:08:11.491Z,1.90
2019-05-14T13:09:10.190Z,1.50
2019-05-14T13:10:10.123Z,1.70
2019-05-14T13:11:10.057Z,1.30
2019-05-14T13:12:11.255Z,1.30
2019-05-14T13:13:09.921Z,1.40
2019-05-14T13:14:09.862Z,1.70
2019-05-14T13:15:09.804Z,1.80
2019-05-14T13:16:09.730Z,1.90
2019-05-14T13:17:09.662Z,2.20